sensor_id;sensor_type;location;lat;lon;timestamp;temperature;humidity
29731;DHT22;16639;51.488;0.152;2023-03-14T00:01:14;11.10;99.90
29731;DHT22;16639;51.488;0.152;2023-03-14T00:03:41;11.10;99.90
29731;DHT22;16639;51.488;0.152;2023-03-14T00:06:09;11.00;99.90
29731;DHT22;16639;51.488;0.152;2023-03-14T00:08:36;11.00;99.90
29731;DHT22;16639;51.488;0.152;2023-03-14T00:11:13;11.00;99.90
29731;DHT22;16639;51.488;0.152;2023-03-14T00:13:41;10.90;99.90
29731;DHT22;16639;51.488;0.152;2023-03-14T00:16:11;10.90;99.90
29731;DHT22;16639;51.488;0.152;2023-03-14T00:18:39;10.90;99.90
29731;DHT22;16639;51.488;0.152;2023-03-14T00:21:09;10.80;99.90
29731;DHT22;16639;51.488;0.152;2023-03-14T00:23:38;10.90;99.90
29731;DHT22;16639;51.488;0.152;2023-03-14T00:26:09;10.90;99.90
29731;DHT22;16639;51.488;0.152;2023-03-14T00:28:37;10.90;99.90
29731;DHT22;16639;51.488;0.152;2023-03-14T00:31:09;10.90;99.90
29731;DHT22;16639;51.488;0.152;2023-03-14T00:33:38;10.80;99.90
29731;DHT22;16639;51.488;0.152;2023-03-14T00:36:10;10.80;99.90
29731;DHT22;16639;51.488;0.152;2023-03-14T00:38:40;10.70;99.90
29731;DHT22;16639;51.488;0.152;2023-03-14T00:41:10;10.70;99.90
29731;DHT22;16639;51.488;0.152;2023-03-14T00:43:38;10.70;99.90
29731;DHT22;16639;51.488;0.152;2023-03-14T00:46:06;10.70;99.90
29731;DHT22;16639;51.488;0.152;2023-03-14T00:48:34;10.60;99.90
29731;DHT22;16639;51.488;0.152;2023-03-14T00:51:03;10.60;99.90
29731;DHT22;16639;51.488;0.152;2023-03-14T00:53:32;10.60;99.90
29731;DHT22;16639;51.488;0.152;2023-03-14T00:56:07;10.60;99.90
29731;DHT22;16639;51.488;0.152;2023-03-14T00:58:35;10.60;99.90
29731;DHT22;16639;51.488;0.152;2023-03-14T01:01:07;10.50;99.90
29731;DHT22;16639;51.488;0.152;2023-03-14T01:03:34;10.60;99.90
29731;DHT22;16639;51.488;0.152;2023-03-14T01:06:16;10.50;99.90
29731;DHT22;16639;51.488;0.152;2023-03-14T01:08:44;10.60;99.90
29731;DHT22;16639;51.488;0.152;2023-03-14T01:11:17;10.50;99.90
29731;DHT22;16639;51.488;0.152;2023-03-14T01:13:45;10.50;99.90
29731;DHT22;16639;51.488;0.152;2023-03-14T01:16:13;10.50;99.90
29731;DHT22;16639;51.488;0.152;2023-03-14T01:18:44;10.50;99.90
29731;DHT22;16639;51.488;0.152;2023-03-14T01:21:25;10.50;99.90
29731;DHT22;16639;51.488;0.152;2023-03-14T01:23:53;10.40;99.90
29731;DHT22;16639;51.488;0.152;2023-03-14T01:26:23;10.40;99.90
29731;DHT22;16639;51.488;0.152;2023-03-14T01:28:52;10.40;99.90
29731;DHT22;16639;51.488;0.152;2023-03-14T01:31:20;10.20;99.90
29731;DHT22;16639;51.488;0.152;2023-03-14T01:33:48;9.50;99.90
29731;DHT22;16639;51.488;0.152;2023-03-14T01:36:16;9.70;99.90
29731;DHT22;16639;51.488;0.152;2023-03-14T01:38:44;9.70;99.90
29731;DHT22;16639;51.488;0.152;2023-03-14T01:41:20;9.60;99.90
29731;DHT22;16639;51.488;0.152;2023-03-14T01:43:49;9.50;99.90
29731;DHT22;16639;51.488;0.152;2023-03-14T01:46:41;9.30;99.90
29731;DHT22;16639;51.488;0.152;2023-03-14T01:49:37;9.10;99.90
29731;DHT22;16639;51.488;0.152;2023-03-14T01:52:16;9.00;99.90
29731;DHT22;16639;51.488;0.152;2023-03-14T01:54:55;8.80;99.90
29731;DHT22;16639;51.488;0.152;2023-03-14T01:57:46;9.30;99.90
29731;DHT22;16639;51.488;0.152;2023-03-14T02:00:17;8.30;99.90
29731;DHT22;16639;51.488;0.152;2023-03-14T02:02:51;8.10;99.90
29731;DHT22;16639;51.488;0.152;2023-03-14T02:05:23;8.00;99.90
29731;DHT22;16639;51.488;0.152;2023-03-14T02:07:56;7.90;99.90
29731;DHT22;16639;51.488;0.152;2023-03-14T02:10:31;7.90;99.90
29731;DHT22;16639;51.488;0.152;2023-03-14T02:13:05;7.80;99.90
29731;DHT22;16639;51.488;0.152;2023-03-14T02:15:33;7.80;99.90
29731;DHT22;16639;51.488;0.152;2023-03-14T02:18:02;7.70;99.90
29731;DHT22;16639;51.488;0.152;2023-03-14T02:23:01;8.90;99.90
29731;DHT22;16639;51.488;0.152;2023-03-14T02:28:05;7.70;99.90
29731;DHT22;16639;51.488;0.152;2023-03-14T02:30:32;7.70;99.90
29731;DHT22;16639;51.488;0.152;2023-03-14T02:33:04;7.70;99.90
29731;DHT22;16639;51.488;0.152;2023-03-14T02:35:41;7.70;99.90
29731;DHT22;16639;51.488;0.152;2023-03-14T02:38:24;7.70;99.90
29731;DHT22;16639;51.488;0.152;2023-03-14T02:40:54;7.80;99.90
29731;DHT22;16639;51.488;0.152;2023-03-14T02:43:21;7.80;99.90
29731;DHT22;16639;51.488;0.152;2023-03-14T02:45:50;7.80;99.90
29731;DHT22;16639;51.488;0.152;2023-03-14T02:48:37;7.70;99.90
29731;DHT22;16639;51.488;0.152;2023-03-14T02:51:06;7.60;99.90
29731;DHT22;16639;51.488;0.152;2023-03-14T02:53:36;7.60;99.90
29731;DHT22;16639;51.488;0.152;2023-03-14T02:56:04;7.50;99.90
29731;DHT22;16639;51.488;0.152;2023-03-14T02:58:32;7.60;99.90
29731;DHT22;16639;51.488;0.152;2023-03-14T03:00:59;7.50;99.90
29731;DHT22;16639;51.488;0.152;2023-03-14T03:03:27;7.50;99.90
29731;DHT22;16639;51.488;0.152;2023-03-14T03:05:55;7.60;99.90
29731;DHT22;16639;51.488;0.152;2023-03-14T03:08:25;7.90;99.90
29731;DHT22;16639;51.488;0.152;2023-03-14T03:10:53;7.50;99.90
29731;DHT22;16639;51.488;0.152;2023-03-14T03:13:21;7.50;99.90
29731;DHT22;16639;51.488;0.152;2023-03-14T03:15:48;7.50;99.90
29731;DHT22;16639;51.488;0.152;2023-03-14T03:18:16;7.40;99.90
29731;DHT22;16639;51.488;0.152;2023-03-14T03:20:43;7.40;99.90
29731;DHT22;16639;51.488;0.152;2023-03-14T03:23:11;7.40;99.90
29731;DHT22;16639;51.488;0.152;2023-03-14T03:25:38;7.50;99.90
29731;DHT22;16639;51.488;0.152;2023-03-14T03:28:06;7.30;99.90
29731;DHT22;16639;51.488;0.152;2023-03-14T03:30:39;7.20;99.90
29731;DHT22;16639;51.488;0.152;2023-03-14T03:33:07;6.80;99.90
29731;DHT22;16639;51.488;0.152;2023-03-14T03:35:34;7.00;99.90
29731;DHT22;16639;51.488;0.152;2023-03-14T03:38:02;7.00;99.90
29731;DHT22;16639;51.488;0.152;2023-03-14T03:40:29;6.90;99.90
29731;DHT22;16639;51.488;0.152;2023-03-14T03:42:56;7.00;99.90
29731;DHT22;16639;51.488;0.152;2023-03-14T03:45:23;6.90;99.90
29731;DHT22;16639;51.488;0.152;2023-03-14T03:47:51;6.90;99.90
29731;DHT22;16639;51.488;0.152;2023-03-14T03:50:18;6.90;99.90
29731;DHT22;16639;51.488;0.152;2023-03-14T03:52:45;6.80;99.90
29731;DHT22;16639;51.488;0.152;2023-03-14T03:55:13;6.90;99.90
29731;DHT22;16639;51.488;0.152;2023-03-14T03:57:40;6.90;99.90
29731;DHT22;16639;51.488;0.152;2023-03-14T04:00:08;6.90;99.90
29731;DHT22;16639;51.488;0.152;2023-03-14T04:02:38;6.90;99.90
29731;DHT22;16639;51.488;0.152;2023-03-14T04:05:06;6.80;99.90
29731;DHT22;16639;51.488;0.152;2023-03-14T04:07:34;6.80;99.90
29731;DHT22;16639;51.488;0.152;2023-03-14T04:10:01;6.80;99.90
29731;DHT22;16639;51.488;0.152;2023-03-14T04:12:28;6.80;99.90
29731;DHT22;16639;51.488;0.152;2023-03-14T04:14:56;6.80;99.90
29731;DHT22;16639;51.488;0.152;2023-03-14T04:17:24;6.90;99.90
29731;DHT22;16639;51.488;0.152;2023-03-14T04:19:51;6.80;99.90
29731;DHT22;16639;51.488;0.152;2023-03-14T04:22:20;7.10;99.90
29731;DHT22;16639;51.488;0.152;2023-03-14T04:24:48;6.90;99.90
29731;DHT22;16639;51.488;0.152;2023-03-14T04:27:15;6.90;99.90
29731;DHT22;16639;51.488;0.152;2023-03-14T04:29:43;6.90;99.90
29731;DHT22;16639;51.488;0.152;2023-03-14T04:32:10;6.90;99.90
29731;DHT22;16639;51.488;0.152;2023-03-14T04:34:37;7.30;99.90
29731;DHT22;16639;51.488;0.152;2023-03-14T04:37:05;6.90;99.90
29731;DHT22;16639;51.488;0.152;2023-03-14T04:39:32;6.90;99.90
29731;DHT22;16639;51.488;0.152;2023-03-14T04:41:59;6.80;99.90
29731;DHT22;16639;51.488;0.152;2023-03-14T04:44:27;6.80;99.90
29731;DHT22;16639;51.488;0.152;2023-03-14T04:46:54;6.80;99.90
29731;DHT22;16639;51.488;0.152;2023-03-14T04:49:21;6.80;99.90
29731;DHT22;16639;51.488;0.152;2023-03-14T04:51:49;6.80;99.90
29731;DHT22;16639;51.488;0.152;2023-03-14T04:54:18;6.80;99.90
29731;DHT22;16639;51.488;0.152;2023-03-14T04:56:45;6.80;99.90
29731;DHT22;16639;51.488;0.152;2023-03-14T04:59:12;6.80;99.90
29731;DHT22;16639;51.488;0.152;2023-03-14T05:01:40;6.80;99.90
29731;DHT22;16639;51.488;0.152;2023-03-14T05:04:08;6.80;99.90
29731;DHT22;16639;51.488;0.152;2023-03-14T05:06:35;6.70;99.90
29731;DHT22;16639;51.488;0.152;2023-03-14T05:09:03;6.80;99.90
29731;DHT22;16639;51.488;0.152;2023-03-14T05:11:32;7.00;99.90
29731;DHT22;16639;51.488;0.152;2023-03-14T05:13:59;6.80;99.90
29731;DHT22;16639;51.488;0.152;2023-03-14T05:16:31;6.80;99.90
29731;DHT22;16639;51.488;0.152;2023-03-14T05:18:59;6.80;99.90
29731;DHT22;16639;51.488;0.152;2023-03-14T05:21:28;6.80;99.90
29731;DHT22;16639;51.488;0.152;2023-03-14T05:23:55;7.00;99.90
29731;DHT22;16639;51.488;0.152;2023-03-14T05:26:23;7.50;99.90
29731;DHT22;16639;51.488;0.152;2023-03-14T05:28:50;6.80;99.90
29731;DHT22;16639;51.488;0.152;2023-03-14T05:31:17;6.60;99.90
29731;DHT22;16639;51.488;0.152;2023-03-14T05:33:45;6.80;99.90
29731;DHT22;16639;51.488;0.152;2023-03-14T05:36:12;6.80;99.90
29731;DHT22;16639;51.488;0.152;2023-03-14T05:38:40;6.80;99.90
29731;DHT22;16639;51.488;0.152;2023-03-14T05:41:07;7.10;99.90
29731;DHT22;16639;51.488;0.152;2023-03-14T05:43:35;6.80;99.90
29731;DHT22;16639;51.488;0.152;2023-03-14T05:46:03;8.30;99.90
29731;DHT22;16639;51.488;0.152;2023-03-14T05:48:30;6.80;99.90
29731;DHT22;16639;51.488;0.152;2023-03-14T05:50:58;6.70;99.90
29731;DHT22;16639;51.488;0.152;2023-03-14T05:53:26;6.90;99.90
29731;DHT22;16639;51.488;0.152;2023-03-14T05:55:54;7.30;99.90
29731;DHT22;16639;51.488;0.152;2023-03-14T05:58:24;6.70;99.90
29731;DHT22;16639;51.488;0.152;2023-03-14T06:00:51;6.70;99.90
29731;DHT22;16639;51.488;0.152;2023-03-14T06:03:18;6.70;99.90
29731;DHT22;16639;51.488;0.152;2023-03-14T06:05:46;6.70;99.90
29731;DHT22;16639;51.488;0.152;2023-03-14T06:08:16;6.80;99.90
29731;DHT22;16639;51.488;0.152;2023-03-14T06:10:44;6.70;99.90
29731;DHT22;16639;51.488;0.152;2023-03-14T06:13:11;6.70;99.90
29731;DHT22;16639;51.488;0.152;2023-03-14T06:15:38;6.80;99.90
29731;DHT22;16639;51.488;0.152;2023-03-14T06:18:06;6.80;99.90
29731;DHT22;16639;51.488;0.152;2023-03-14T06:20:36;6.80;99.90
29731;DHT22;16639;51.488;0.152;2023-03-14T06:23:03;6.80;99.90
29731;DHT22;16639;51.488;0.152;2023-03-14T06:25:32;7.00;99.90
29731;DHT22;16639;51.488;0.152;2023-03-14T06:27:59;7.40;99.90
29731;DHT22;16639;51.488;0.152;2023-03-14T06:30:27;6.80;99.90
29731;DHT22;16639;51.488;0.152;2023-03-14T06:32:54;6.80;99.90
29731;DHT22;16639;51.488;0.152;2023-03-14T06:35:22;6.70;99.90
29731;DHT22;16639;51.488;0.152;2023-03-14T06:37:50;6.80;99.90
29731;DHT22;16639;51.488;0.152;2023-03-14T06:40:17;6.80;99.90
29731;DHT22;16639;51.488;0.152;2023-03-14T06:42:46;6.80;99.90
29731;DHT22;16639;51.488;0.152;2023-03-14T06:45:14;6.90;99.90
29731;DHT22;16639;51.488;0.152;2023-03-14T06:47:41;6.80;99.90
29731;DHT22;16639;51.488;0.152;2023-03-14T06:50:09;6.80;99.90
29731;DHT22;16639;51.488;0.152;2023-03-14T06:52:37;6.90;99.90
29731;DHT22;16639;51.488;0.152;2023-03-14T06:55:08;6.90;99.90
29731;DHT22;16639;51.488;0.152;2023-03-14T06:57:36;6.90;99.90
29731;DHT22;16639;51.488;0.152;2023-03-14T07:00:04;6.80;99.90
29731;DHT22;16639;51.488;0.152;2023-03-14T07:02:32;6.80;99.90
29731;DHT22;16639;51.488;0.152;2023-03-14T07:05:09;6.90;99.90
29731;DHT22;16639;51.488;0.152;2023-03-14T07:07:40;7.00;99.90
29731;DHT22;16639;51.488;0.152;2023-03-14T07:10:07;7.00;99.90
29731;DHT22;16639;51.488;0.152;2023-03-14T07:12:36;7.00;99.90
29731;DHT22;16639;51.488;0.152;2023-03-14T07:15:03;7.00;99.90
29731;DHT22;16639;51.488;0.152;2023-03-14T07:17:45;7.00;99.90
29731;DHT22;16639;51.488;0.152;2023-03-14T07:20:12;7.00;99.90
29731;DHT22;16639;51.488;0.152;2023-03-14T07:22:40;6.90;99.90
29731;DHT22;16639;51.488;0.152;2023-03-14T07:25:07;6.90;99.90
29731;DHT22;16639;51.488;0.152;2023-03-14T07:27:38;6.60;99.90
29731;DHT22;16639;51.488;0.152;2023-03-14T07:30:05;7.00;99.90
29731;DHT22;16639;51.488;0.152;2023-03-14T07:32:33;7.10;99.90
29731;DHT22;16639;51.488;0.152;2023-03-14T07:35:00;6.80;99.90
29731;DHT22;16639;51.488;0.152;2023-03-14T07:37:28;7.00;99.90
29731;DHT22;16639;51.488;0.152;2023-03-14T07:39:55;7.30;99.90
29731;DHT22;16639;51.488;0.152;2023-03-14T07:42:22;6.90;99.90
29731;DHT22;16639;51.488;0.152;2023-03-14T07:44:50;6.90;99.90
29731;DHT22;16639;51.488;0.152;2023-03-14T07:47:17;7.00;99.90
29731;DHT22;16639;51.488;0.152;2023-03-14T07:49:44;6.90;99.90
29731;DHT22;16639;51.488;0.152;2023-03-14T07:52:12;7.80;99.90
29731;DHT22;16639;51.488;0.152;2023-03-14T07:54:39;6.90;99.90
29731;DHT22;16639;51.488;0.152;2023-03-14T07:57:07;6.80;99.90
29731;DHT22;16639;51.488;0.152;2023-03-14T07:59:34;6.80;99.90
29731;DHT22;16639;51.488;0.152;2023-03-14T08:02:01;6.80;99.90
29731;DHT22;16639;51.488;0.152;2023-03-14T08:04:29;6.70;99.90
29731;DHT22;16639;51.488;0.152;2023-03-14T08:06:56;6.50;99.90
29731;DHT22;16639;51.488;0.152;2023-03-14T08:09:23;6.60;99.90
29731;DHT22;16639;51.488;0.152;2023-03-14T08:11:51;6.60;99.90
29731;DHT22;16639;51.488;0.152;2023-03-14T08:14:18;6.50;99.90
29731;DHT22;16639;51.488;0.152;2023-03-14T08:16:45;6.40;99.90
29731;DHT22;16639;51.488;0.152;2023-03-14T08:19:13;6.50;99.90
29731;DHT22;16639;51.488;0.152;2023-03-14T08:21:41;6.30;99.90
29731;DHT22;16639;51.488;0.152;2023-03-14T08:24:09;6.30;99.90
29731;DHT22;16639;51.488;0.152;2023-03-14T08:26:36;6.20;99.90
29731;DHT22;16639;51.488;0.152;2023-03-14T08:29:04;6.30;99.90
29731;DHT22;16639;51.488;0.152;2023-03-14T08:31:33;6.10;99.90
29731;DHT22;16639;51.488;0.152;2023-03-14T08:34:01;6.00;99.90
29731;DHT22;16639;51.488;0.152;2023-03-14T08:36:29;5.90;99.90
29731;DHT22;16639;51.488;0.152;2023-03-14T08:38:58;5.90;99.90
29731;DHT22;16639;51.488;0.152;2023-03-14T08:41:25;5.90;99.90
29731;DHT22;16639;51.488;0.152;2023-03-14T08:43:54;6.20;99.90
29731;DHT22;16639;51.488;0.152;2023-03-14T08:46:22;5.90;99.90
29731;DHT22;16639;51.488;0.152;2023-03-14T08:48:49;5.90;99.90
29731;DHT22;16639;51.488;0.152;2023-03-14T08:51:17;6.70;99.90
29731;DHT22;16639;51.488;0.152;2023-03-14T08:53:45;5.90;99.90
29731;DHT22;16639;51.488;0.152;2023-03-14T08:56:15;5.90;99.90
29731;DHT22;16639;51.488;0.152;2023-03-14T08:58:42;5.90;99.90
29731;DHT22;16639;51.488;0.152;2023-03-14T09:01:10;5.80;99.90
29731;DHT22;16639;51.488;0.152;2023-03-14T09:03:38;5.80;99.90
29731;DHT22;16639;51.488;0.152;2023-03-14T09:06:07;5.80;99.90
29731;DHT22;16639;51.488;0.152;2023-03-14T09:08:36;5.80;99.90
29731;DHT22;16639;51.488;0.152;2023-03-14T09:11:14;5.90;99.90
29731;DHT22;16639;51.488;0.152;2023-03-14T09:13:44;5.90;99.90
29731;DHT22;16639;51.488;0.152;2023-03-14T09:16:11;5.90;99.90
29731;DHT22;16639;51.488;0.152;2023-03-14T09:18:39;6.00;99.90
29731;DHT22;16639;51.488;0.152;2023-03-14T09:21:08;6.10;99.90
29731;DHT22;16639;51.488;0.152;2023-03-14T09:23:35;6.70;99.90
29731;DHT22;16639;51.488;0.152;2023-03-14T09:26:04;6.20;99.90
29731;DHT22;16639;51.488;0.152;2023-03-14T09:28:31;6.50;99.90
29731;DHT22;16639;51.488;0.152;2023-03-14T09:31:05;5.60;99.90
29731;DHT22;16639;51.488;0.152;2023-03-14T09:33:33;6.30;99.90
29731;DHT22;16639;51.488;0.152;2023-03-14T09:36:04;6.20;99.90
29731;DHT22;16639;51.488;0.152;2023-03-14T09:38:32;6.10;99.90
29731;DHT22;16639;51.488;0.152;2023-03-14T09:41:01;6.00;99.90
29731;DHT22;16639;51.488;0.152;2023-03-14T09:43:31;6.00;99.90
29731;DHT22;16639;51.488;0.152;2023-03-14T09:46:04;5.90;99.90
29731;DHT22;16639;51.488;0.152;2023-03-14T09:48:33;6.30;99.90
29731;DHT22;16639;51.488;0.152;2023-03-14T09:51:05;5.90;99.90
29731;DHT22;16639;51.488;0.152;2023-03-14T09:53:41;5.90;99.90
29731;DHT22;16639;51.488;0.152;2023-03-14T09:56:21;5.90;99.90
29731;DHT22;16639;51.488;0.152;2023-03-14T09:59:03;5.80;99.90
29731;DHT22;16639;51.488;0.152;2023-03-14T10:01:34;5.90;99.90
29731;DHT22;16639;51.488;0.152;2023-03-14T10:04:09;6.00;99.90
29731;DHT22;16639;51.488;0.152;2023-03-14T10:06:38;6.00;99.90
29731;DHT22;16639;51.488;0.152;2023-03-14T10:09:05;6.00;99.90
29731;DHT22;16639;51.488;0.152;2023-03-14T10:11:33;6.10;99.90
29731;DHT22;16639;51.488;0.152;2023-03-14T10:14:08;6.10;99.90
29731;DHT22;16639;51.488;0.152;2023-03-14T10:16:41;6.00;99.90
29731;DHT22;16639;51.488;0.152;2023-03-14T10:19:16;5.90;99.90
29731;DHT22;16639;51.488;0.152;2023-03-14T10:21:51;5.90;99.90
29731;DHT22;16639;51.488;0.152;2023-03-14T10:24:30;5.50;99.90
29731;DHT22;16639;51.488;0.152;2023-03-14T10:27:04;5.90;99.90
29731;DHT22;16639;51.488;0.152;2023-03-14T10:29:34;5.90;99.90
29731;DHT22;16639;51.488;0.152;2023-03-14T10:32:21;7.30;99.90
29731;DHT22;16639;51.488;0.152;2023-03-14T10:35:19;6.00;99.90
29731;DHT22;16639;51.488;0.152;2023-03-14T10:38:04;6.10;99.90
29731;DHT22;16639;51.488;0.152;2023-03-14T10:40:39;6.10;99.90
29731;DHT22;16639;51.488;0.152;2023-03-14T10:43:17;6.20;99.90
29731;DHT22;16639;51.488;0.152;2023-03-14T10:45:55;6.30;99.90
29731;DHT22;16639;51.488;0.152;2023-03-14T10:48:32;6.30;99.90
29731;DHT22;16639;51.488;0.152;2023-03-14T10:54:13;6.40;99.90
29731;DHT22;16639;51.488;0.152;2023-03-14T10:56:42;6.20;99.90
29731;DHT22;16639;51.488;0.152;2023-03-14T10:59:14;6.50;99.90
29731;DHT22;16639;51.488;0.152;2023-03-14T11:07:40;6.60;99.90
29731;DHT22;16639;51.488;0.152;2023-03-14T11:13:25;7.20;99.90
29731;DHT22;16639;51.488;0.152;2023-03-14T11:16:20;6.90;99.90
29731;DHT22;16639;51.488;0.152;2023-03-14T11:33:27;6.90;99.90
29731;DHT22;16639;51.488;0.152;2023-03-14T11:38:46;7.00;99.90
29731;DHT22;16639;51.488;0.152;2023-03-14T11:41:23;7.00;99.90
29731;DHT22;16639;51.488;0.152;2023-03-14T11:43:55;7.10;99.90
29731;DHT22;16639;51.488;0.152;2023-03-14T11:46:32;7.10;99.90
29731;DHT22;16639;51.488;0.152;2023-03-14T11:51:59;7.20;99.90
29731;DHT22;16639;51.488;0.152;2023-03-14T11:57:04;7.30;99.90
29731;DHT22;16639;51.488;0.152;2023-03-14T12:10:45;7.40;99.90
29731;DHT22;16639;51.488;0.152;2023-03-14T12:13:15;7.40;99.90
29731;DHT22;16639;51.488;0.152;2023-03-14T12:15:55;7.60;99.90
29731;DHT22;16639;51.488;0.152;2023-03-14T12:18:37;7.40;99.90
29731;DHT22;16639;51.488;0.152;2023-03-14T12:21:11;7.30;99.90
29731;DHT22;16639;51.488;0.152;2023-03-14T12:23:53;7.30;99.90
29731;DHT22;16639;51.488;0.152;2023-03-14T12:26:27;6.70;99.90
29731;DHT22;16639;51.488;0.152;2023-03-14T12:29:15;7.50;99.90
29731;DHT22;16639;51.488;0.152;2023-03-14T12:34:42;7.70;99.90
29731;DHT22;16639;51.488;0.152;2023-03-14T12:40:01;7.60;99.90
29731;DHT22;16639;51.488;0.152;2023-03-14T12:45:22;7.10;99.90
29731;DHT22;16639;51.488;0.152;2023-03-14T12:48:07;6.40;99.90
29731;DHT22;16639;51.488;0.152;2023-03-14T12:50:46;7.80;99.90
29731;DHT22;16639;51.488;0.152;2023-03-14T13:00:03;7.70;99.90
29731;DHT22;16639;51.488;0.152;2023-03-14T13:02:44;7.80;99.90
29731;DHT22;16639;51.488;0.152;2023-03-14T13:12:39;7.90;99.90
29731;DHT22;16639;51.488;0.152;2023-03-14T13:17:46;8.40;99.90
29731;DHT22;16639;51.488;0.152;2023-03-14T13:20:21;8.40;99.90
29731;DHT22;16639;51.488;0.152;2023-03-14T13:22:50;7.10;99.90
29731;DHT22;16639;51.488;0.152;2023-03-14T13:25:18;8.60;99.90
29731;DHT22;16639;51.488;0.152;2023-03-14T13:27:48;8.70;99.90
29731;DHT22;16639;51.488;0.152;2023-03-14T13:30:20;8.60;99.90
29731;DHT22;16639;51.488;0.152;2023-03-14T13:32:51;8.60;99.90
29731;DHT22;16639;51.488;0.152;2023-03-14T13:35:24;8.60;99.90
29731;DHT22;16639;51.488;0.152;2023-03-14T13:38:00;8.60;99.90
29731;DHT22;16639;51.488;0.152;2023-03-14T13:40:44;8.50;99.90
29731;DHT22;16639;51.488;0.152;2023-03-14T13:43:23;9.90;99.90
29731;DHT22;16639;51.488;0.152;2023-03-14T13:46:04;8.10;99.90
29731;DHT22;16639;51.488;0.152;2023-03-14T13:48:43;8.50;99.90
29731;DHT22;16639;51.488;0.152;2023-03-14T13:51:13;8.40;99.90
29731;DHT22;16639;51.488;0.152;2023-03-14T13:53:52;8.40;99.90
29731;DHT22;16639;51.488;0.152;2023-03-14T13:56:23;8.40;99.90
29731;DHT22;16639;51.488;0.152;2023-03-14T13:58:51;8.50;99.90
29731;DHT22;16639;51.488;0.152;2023-03-14T14:01:32;8.60;99.90
29731;DHT22;16639;51.488;0.152;2023-03-14T14:04:08;8.60;99.90
29731;DHT22;16639;51.488;0.152;2023-03-14T14:06:38;8.70;99.90
29731;DHT22;16639;51.488;0.152;2023-03-14T14:09:10;8.70;99.90
29731;DHT22;16639;51.488;0.152;2023-03-14T14:14:36;8.80;99.90
29731;DHT22;16639;51.488;0.152;2023-03-14T14:17:10;8.90;99.90
29731;DHT22;16639;51.488;0.152;2023-03-14T14:19:39;9.00;99.90
29731;DHT22;16639;51.488;0.152;2023-03-14T14:22:09;9.00;99.90
29731;DHT22;16639;51.488;0.152;2023-03-14T14:24:38;9.00;99.90
29731;DHT22;16639;51.488;0.152;2023-03-14T14:27:18;9.10;99.90
29731;DHT22;16639;51.488;0.152;2023-03-14T14:30:41;9.10;99.90
29731;DHT22;16639;51.488;0.152;2023-03-14T14:32:50;9.10;99.90
29731;DHT22;16639;51.488;0.152;2023-03-14T14:35:33;9.10;99.90
29731;DHT22;16639;51.488;0.152;2023-03-14T14:38:01;9.00;99.90
29731;DHT22;16639;51.488;0.152;2023-03-14T14:40:30;8.90;99.90
29731;DHT22;16639;51.488;0.152;2023-03-14T14:43:05;8.90;99.90
29731;DHT22;16639;51.488;0.152;2023-03-14T14:45:34;8.80;99.90
29731;DHT22;16639;51.488;0.152;2023-03-14T14:53:18;8.90;99.90
29731;DHT22;16639;51.488;0.152;2023-03-14T14:55:50;8.90;99.90
29731;DHT22;16639;51.488;0.152;2023-03-14T14:58:32;9.10;99.90
29731;DHT22;16639;51.488;0.152;2023-03-14T15:01:31;9.00;99.90
29731;DHT22;16639;51.488;0.152;2023-03-14T15:04:00;9.00;99.90
29731;DHT22;16639;51.488;0.152;2023-03-14T15:06:29;9.00;99.90
29731;DHT22;16639;51.488;0.152;2023-03-14T15:08:58;9.10;99.90
29731;DHT22;16639;51.488;0.152;2023-03-14T15:11:26;9.30;99.90
29731;DHT22;16639;51.488;0.152;2023-03-14T15:13:54;9.20;99.90
29731;DHT22;16639;51.488;0.152;2023-03-14T15:16:24;9.20;99.90
29731;DHT22;16639;51.488;0.152;2023-03-14T15:18:56;9.30;99.90
29731;DHT22;16639;51.488;0.152;2023-03-14T15:21:25;9.20;99.90
29731;DHT22;16639;51.488;0.152;2023-03-14T15:23:54;9.20;99.90
29731;DHT22;16639;51.488;0.152;2023-03-14T15:26:25;9.20;99.90
29731;DHT22;16639;51.488;0.152;2023-03-14T15:28:53;9.20;99.90
29731;DHT22;16639;51.488;0.152;2023-03-14T15:31:20;9.10;99.90
29731;DHT22;16639;51.488;0.152;2023-03-14T15:33:48;9.10;99.90
29731;DHT22;16639;51.488;0.152;2023-03-14T15:36:27;9.00;99.90
29731;DHT22;16639;51.488;0.152;2023-03-14T15:39:22;9.00;99.90
29731;DHT22;16639;51.488;0.152;2023-03-14T15:41:52;9.00;99.90
29731;DHT22;16639;51.488;0.152;2023-03-14T15:44:19;9.00;99.90
29731;DHT22;16639;51.488;0.152;2023-03-14T15:46:46;9.00;99.90
29731;DHT22;16639;51.488;0.152;2023-03-14T15:49:14;8.90;99.90
29731;DHT22;16639;51.488;0.152;2023-03-14T15:51:41;8.90;99.90
29731;DHT22;16639;51.488;0.152;2023-03-14T15:54:09;8.90;99.90
29731;DHT22;16639;51.488;0.152;2023-03-14T15:56:36;9.00;99.90
29731;DHT22;16639;51.488;0.152;2023-03-14T15:59:06;9.10;99.90
29731;DHT22;16639;51.488;0.152;2023-03-14T16:01:33;9.10;99.90
29731;DHT22;16639;51.488;0.152;2023-03-14T16:04:01;9.20;99.90
29731;DHT22;16639;51.488;0.152;2023-03-14T16:06:29;9.20;99.90
29731;DHT22;16639;51.488;0.152;2023-03-14T16:08:57;9.30;99.90
29731;DHT22;16639;51.488;0.152;2023-03-14T16:11:27;9.20;99.90
29731;DHT22;16639;51.488;0.152;2023-03-14T16:13:54;9.20;99.90
29731;DHT22;16639;51.488;0.152;2023-03-14T16:16:22;9.10;99.90
29731;DHT22;16639;51.488;0.152;2023-03-14T16:18:49;9.10;99.90
29731;DHT22;16639;51.488;0.152;2023-03-14T16:21:18;9.10;99.90
29731;DHT22;16639;51.488;0.152;2023-03-14T16:23:46;9.10;99.90
29731;DHT22;16639;51.488;0.152;2023-03-14T16:26:19;9.10;99.90
29731;DHT22;16639;51.488;0.152;2023-03-14T16:28:47;9.10;99.90
29731;DHT22;16639;51.488;0.152;2023-03-14T16:31:19;9.10;99.90
29731;DHT22;16639;51.488;0.152;2023-03-14T16:33:51;9.10;99.90
29731;DHT22;16639;51.488;0.152;2023-03-14T16:36:19;9.20;99.90
29731;DHT22;16639;51.488;0.152;2023-03-14T16:38:46;9.20;99.90
29731;DHT22;16639;51.488;0.152;2023-03-14T16:41:18;9.20;99.90
29731;DHT22;16639;51.488;0.152;2023-03-14T16:43:47;9.20;99.90
29731;DHT22;16639;51.488;0.152;2023-03-14T16:46:19;9.30;99.90
29731;DHT22;16639;51.488;0.152;2023-03-14T16:48:48;9.30;99.90
29731;DHT22;16639;51.488;0.152;2023-03-14T16:51:16;9.30;99.90
29731;DHT22;16639;51.488;0.152;2023-03-14T16:53:44;9.30;99.90
29731;DHT22;16639;51.488;0.152;2023-03-14T16:56:12;9.00;99.90
29731;DHT22;16639;51.488;0.152;2023-03-14T16:58:40;9.20;99.90
29731;DHT22;16639;51.488;0.152;2023-03-14T17:01:10;9.20;99.90
29731;DHT22;16639;51.488;0.152;2023-03-14T17:03:40;9.20;99.90
29731;DHT22;16639;51.488;0.152;2023-03-14T17:06:11;9.20;99.90
29731;DHT22;16639;51.488;0.152;2023-03-14T17:08:40;9.30;99.90
29731;DHT22;16639;51.488;0.152;2023-03-14T17:11:08;9.30;99.90
29731;DHT22;16639;51.488;0.152;2023-03-14T17:13:37;9.30;99.90
29731;DHT22;16639;51.488;0.152;2023-03-14T17:16:05;9.30;99.90
29731;DHT22;16639;51.488;0.152;2023-03-14T17:18:33;9.20;99.90
29731;DHT22;16639;51.488;0.152;2023-03-14T17:21:01;9.80;99.90
29731;DHT22;16639;51.488;0.152;2023-03-14T17:23:31;9.20;99.90
29731;DHT22;16639;51.488;0.152;2023-03-14T17:25:59;9.20;99.90
29731;DHT22;16639;51.488;0.152;2023-03-14T17:28:27;9.40;99.90
29731;DHT22;16639;51.488;0.152;2023-03-14T17:31:09;9.20;99.90